PRIVATE WETTERSTATION BILLIGHEIM-ALLFELD                       ZURCK
Wetterdaten: Freitag, 26.08.2016
Datum Zeit Temp. A. Temp. A. min Temp. A. max Feuchte A. Luftdruck Regen Wind Richtung Richtung Sonnenschein ET Solar Taupunkt Windchill Windben Empfang
26.08.2016 00:00 21,3 C 21,3 C 21,9 C 60 % 1015,0 hPa 0,0 l/m 0,0 km/h (0 Bft) O-SO 112 0 min 0,051 mm 0 W/m 13,2 C 21,3 C 4,8 km/h (1 Bft) 98 %
26.08.2016 00:10 21,1 C 21,1 C 21,3 C 60 % 1014,9 hPa 0,0 l/m 1,6 km/h (1 Bft) O-SO 112 0 min 0,000 mm 0 W/m 13,0 C 21,1 C 6,4 km/h (2 Bft) 97 %
26.08.2016 00:20 20,9 C 20,9 C 21,1 C 60 % 1014,9 hPa 0,0 l/m 1,6 km/h (1 Bft) O 90 0 min 0,000 mm 0 W/m 12,8 C 20,9 C 9,7 km/h (2 Bft) 97 %
26.08.2016 00:30 20,7 C 20,7 C 20,9 C 63 % 1015,0 hPa 0,0 l/m 0,0 km/h (0 Bft) N 0 0 min 0,000 mm 0 W/m 13,4 C 20,7 C 0,0 km/h (0 Bft) 98 %
26.08.2016 00:40 20,3 C 20,3 C 20,7 C 64 % 1015,0 hPa 0,0 l/m 0,0 km/h (0 Bft) O-SO 112 0 min 0,000 mm 0 W/m 13,3 C 20,3 C 1,6 km/h (1 Bft) 97 %
26.08.2016 00:50 19,9 C 19,9 C 20,3 C 65 % 1014,9 hPa 0,0 l/m 0,0 km/h (0 Bft) N 360 0 min 0,000 mm 0 W/m 13,1 C 19,9 C 3,2 km/h (1 Bft) 97 %
26.08.2016 01:00 19,6 C 19,6 C 19,9 C 66 % 1014,9 hPa 0,0 l/m 0,0 km/h (0 Bft) N 0 0 min 0,025 mm 0 W/m 13,1 C 19,6 C 0,0 km/h (0 Bft) 97 %
26.08.2016 01:10 19,3 C 19,3 C 19,6 C 67 % 1015,0 hPa 0,0 l/m 0,0 km/h (0 Bft) N-NO 22 0 min 0,000 mm 0 W/m 13,0 C 19,3 C 1,6 km/h (1 Bft) 98 %
26.08.2016 01:20 19,1 C 19,1 C 19,3 C 69 % 1014,9 hPa 0,0 l/m 0,0 km/h (0 Bft) N 0 0 min 0,000 mm 0 W/m 13,3 C 19,1 C 0,0 km/h (0 Bft) 98 %
26.08.2016 01:30 18,7 C 18,7 C 19,0 C 69 % 1014,9 hPa 0,0 l/m 0,0 km/h (0 Bft) N-NO 22 0 min 0,000 mm 0 W/m 12,9 C 18,7 C 1,6 km/h (1 Bft) 97 %
26.08.2016 01:40 18,5 C 18,5 C 18,7 C 71 % 1014,9 hPa 0,0 l/m 0,0 km/h (0 Bft) N-NO 22 0 min 0,000 mm 0 W/m 13,1 C 18,5 C 1,6 km/h (1 Bft) 98 %
26.08.2016 01:50 18,2 C 18,2 C 18,5 C 72 % 1014,9 hPa 0,0 l/m 0,0 km/h (0 Bft) N 360 0 min 0,000 mm 0 W/m 13,1 C 18,2 C 4,8 km/h (1 Bft) 98 %
26.08.2016 02:00 17,9 C 17,9 C 18,2 C 73 % 1014,9 hPa 0,0 l/m 1,6 km/h (1 Bft) N 360 0 min 0,025 mm 0 W/m 13,0 C 17,9 C 6,4 km/h (2 Bft) 98 %
26.08.2016 02:10 17,6 C 17,6 C 17,9 C 74 % 1014,8 hPa 0,0 l/m 4,8 km/h (1 Bft) N-NW 337 0 min 0,000 mm 0 W/m 12,9 C 17,6 C 9,7 km/h (2 Bft) 97 %
26.08.2016 02:20 17,4 C 17,4 C 17,6 C 74 % 1014,7 hPa 0,0 l/m 1,6 km/h (1 Bft) N-NW 337 0 min 0,000 mm 0 W/m 12,7 C 17,4 C 6,4 km/h (2 Bft) 98 %
26.08.2016 02:30 17,3 C 17,3 C 17,4 C 75 % 1014,6 hPa 0,0 l/m 0,0 km/h (0 Bft) N 0 0 min 0,000 mm 0 W/m 12,8 C 17,3 C 0,0 km/h (0 Bft) 97 %
26.08.2016 02:40 17,2 C 17,2 C 17,3 C 76 % 1014,8 hPa 0,0 l/m 1,6 km/h (1 Bft) N-NW 337 0 min 0,000 mm 0 W/m 12,9 C 17,2 C 4,8 km/h (1 Bft) 97 %
26.08.2016 02:50 16,9 C 16,9 C 17,2 C 77 % 1014,8 hPa 0,0 l/m 0,0 km/h (0 Bft) N-NW 337 0 min 0,000 mm 0 W/m 12,8 C 16,9 C 4,8 km/h (1 Bft) 98 %
26.08.2016 03:00 16,7 C 16,7 C 16,9 C 78 % 1014,8 hPa 0,0 l/m 0,0 km/h (0 Bft) N-NW 337 0 min 0,025 mm 0 W/m 12,8 C 16,7 C 1,6 km/h (1 Bft) 97 %
26.08.2016 03:10 16,4 C 16,4 C 16,7 C 79 % 1014,8 hPa 0,0 l/m 0,0 km/h (0 Bft) N-NW 337 0 min 0,000 mm 0 W/m 12,7 C 16,4 C 1,6 km/h (1 Bft) 98 %
26.08.2016 03:20 16,3 C 16,3 C 16,4 C 79 % 1014,9 hPa 0,0 l/m 0,0 km/h (0 Bft) N-NW 337 0 min 0,000 mm 0 W/m 12,6 C 16,3 C 4,8 km/h (1 Bft) 97 %
26.08.2016 03:30 16,2 C 16,2 C 16,3 C 79 % 1014,9 hPa 0,0 l/m 0,0 km/h (0 Bft) N 0 0 min 0,000 mm 0 W/m 12,6 C 16,2 C 0,0 km/h (0 Bft) 98 %
26.08.2016 03:40 16,1 C 16,1 C 16,2 C 80 % 1014,8 hPa 0,0 l/m 0,0 km/h (0 Bft) N 360 0 min 0,000 mm 0 W/m 12,6 C 16,1 C 4,8 km/h (1 Bft) 98 %
26.08.2016 03:50 15,9 C 15,9 C 16,1 C 80 % 1014,9 hPa 0,0 l/m 0,0 km/h (0 Bft) N 360 0 min 0,000 mm 0 W/m 12,5 C 15,9 C 1,6 km/h (1 Bft) 97 %
26.08.2016 04:00 15,8 C 15,8 C 15,9 C 80 % 1014,9 hPa 0,0 l/m 1,6 km/h (1 Bft) N 360 0 min 0,025 mm 0 W/m 12,4 C 15,8 C 4,8 km/h (1 Bft) 98 %
26.08.2016 04:10 15,6 C 15,6 C 15,8 C 81 % 1014,9 hPa 0,0 l/m 0,0 km/h (0 Bft) N 360 0 min 0,000 mm 0 W/m 12,3 C 15,6 C 4,8 km/h (1 Bft) 98 %
26.08.2016 04:20 15,4 C 15,4 C 15,6 C 82 % 1014,9 hPa 0,0 l/m 0,0 km/h (0 Bft) N 360 0 min 0,000 mm 0 W/m 12,3 C 15,4 C 4,8 km/h (1 Bft) 97 %
26.08.2016 04:30 15,2 C 15,2 C 15,4 C 82 % 1014,9 hPa 0,0 l/m 0,0 km/h (0 Bft) N 360 0 min 0,000 mm 0 W/m 12,1 C 15,2 C 3,2 km/h (1 Bft) 97 %
26.08.2016 04:40 15,1 C 15,1 C 15,2 C 82 % 1014,9 hPa 0,0 l/m 0,0 km/h (0 Bft) N 360 0 min 0,000 mm 0 W/m 12,0 C 15,1 C 4,8 km/h (1 Bft) 98 %
26.08.2016 04:50 15,1 C 15,1 C 15,1 C 82 % 1014,9 hPa 0,0 l/m 0,0 km/h (0 Bft) N 360 0 min 0,000 mm 0 W/m 12,0 C 15,1 C 3,2 km/h (1 Bft) 98 %
26.08.2016 05:00 15,1 C 15,1 C 15,1 C 83 % 1014,9 hPa 0,0 l/m 0,0 km/h (0 Bft) N 360 0 min 0,025 mm 0 W/m 12,2 C 15,1 C 1,6 km/h (1 Bft) 97 %
26.08.2016 05:10 15,1 C 15,1 C 15,1 C 83 % 1014,9 hPa 0,0 l/m 0,0 km/h (0 Bft) N 360 0 min 0,000 mm 0 W/m 12,2 C 15,1 C 1,6 km/h (1 Bft) 97 %
26.08.2016 05:20 14,9 C 14,9 C 15,1 C 83 % 1015,0 hPa 0,0 l/m 0,0 km/h (0 Bft) N 360 0 min 0,000 mm 0 W/m 12,0 C 14,9 C 3,2 km/h (1 Bft) 97 %
26.08.2016 05:30 14,8 C 14,8 C 15,0 C 83 % 1015,0 hPa 0,0 l/m 1,6 km/h (1 Bft) N 360 0 min 0,000 mm 0 W/m 11,9 C 14,8 C 4,8 km/h (1 Bft) 98 %
26.08.2016 05:40 14,8 C 14,8 C 14,8 C 83 % 1015,0 hPa 0,0 l/m 1,6 km/h (1 Bft) N 360 0 min 0,000 mm 0 W/m 11,9 C 14,8 C 4,8 km/h (1 Bft) 97 %
26.08.2016 05:50 14,8 C 14,8 C 14,8 C 84 % 1015,1 hPa 0,0 l/m 0,0 km/h (0 Bft) N 360 0 min 0,000 mm 0 W/m 12,1 C 14,8 C 4,8 km/h (1 Bft) 97 %
26.08.2016 06:00 14,7 C 14,7 C 14,8 C 84 % 1015,2 hPa 0,0 l/m 1,6 km/h (1 Bft) N 360 0 min 0,025 mm 0 W/m 12,0 C 14,7 C 4,8 km/h (1 Bft) 98 %
26.08.2016 06:10 14,7 C 14,6 C 14,7 C 83 % 1015,2 hPa 0,0 l/m 0,0 km/h (0 Bft) N 0 0 min 0,000 mm 0 W/m 11,8 C 14,7 C 0,0 km/h (0 Bft) 97 %
26.08.2016 06:20 14,8 C 14,7 C 14,8 C 82 % 1015,2 hPa 0,0 l/m 0,0 km/h (0 Bft) N 0 0 min 0,000 mm 0 W/m 11,8 C 14,8 C 0,0 km/h (0 Bft) 98 %
26.08.2016 06:30 14,9 C 14,8 C 14,9 C 82 % 1015,3 hPa 0,0 l/m 0,0 km/h (0 Bft) N 360 0 min 0,000 mm 0 W/m 11,9 C 14,9 C 1,6 km/h (1 Bft) 97 %
26.08.2016 06:40 14,8 C 14,8 C 14,9 C 82 % 1015,5 hPa 0,0 l/m 1,6 km/h (1 Bft) N 360 0 min 0,000 mm 5 W/m 11,8 C 14,8 C 4,8 km/h (1 Bft) 98 %
26.08.2016 06:50 14,7 C 14,7 C 14,9 C 83 % 1015,5 hPa 0,0 l/m 0,0 km/h (0 Bft) N 360 0 min 0,000 mm 9 W/m 11,8 C 14,7 C 1,6 km/h (1 Bft) 97 %
26.08.2016 07:00 14,7 C 14,7 C 14,7 C 83 % 1015,6 hPa 0,0 l/m 0,0 km/h (0 Bft) N 360 0 min 0,000 mm 12 W/m 11,8 C 14,7 C 3,2 km/h (1 Bft) 97 %
26.08.2016 07:10 14,7 C 14,7 C 14,7 C 83 % 1015,6 hPa 0,0 l/m 0,0 km/h (0 Bft) N 0 0 min 0,000 mm 14 W/m 11,8 C 14,7 C 0,0 km/h (0 Bft) 98 %
26.08.2016 07:20 14,7 C 14,7 C 14,7 C 83 % 1015,6 hPa 0,0 l/m 0,0 km/h (0 Bft) N 0 0 min 0,000 mm 18 W/m 11,8 C 14,7 C 0,0 km/h (0 Bft) 96 %
26.08.2016 07:30 14,7 C 14,7 C 14,7 C 85 % 1015,7 hPa 0,0 l/m 0,0 km/h (0 Bft) N 0 0 min 0,000 mm 19 W/m 12,2 C 14,7 C 0,0 km/h (0 Bft) 98 %
26.08.2016 07:40 14,7 C 14,7 C 14,7 C 85 % 1015,8 hPa 0,0 l/m 0,0 km/h (0 Bft) N 360 0 min 0,000 mm 21 W/m 12,2 C 14,7 C 1,6 km/h (1 Bft) 98 %
26.08.2016 07:50 14,6 C 14,6 C 14,7 C 85 % 1015,8 hPa 0,0 l/m 1,6 km/h (1 Bft) N 360 0 min 0,000 mm 23 W/m 12,1 C 14,6 C 4,8 km/h (1 Bft) 98 %
26.08.2016 08:00 14,7 C 14,6 C 14,7 C 85 % 1015,9 hPa 0,0 l/m 1,6 km/h (1 Bft) N 360 0 min 0,025 mm 25 W/m 12,2 C 14,7 C 6,4 km/h (2 Bft) 98 %
26.08.2016 08:10 14,8 C 14,7 C 14,8 C 85 % 1015,9 hPa 0,0 l/m 0,0 km/h (0 Bft) N 360 0 min 0,000 mm 26 W/m 12,3 C 14,8 C 3,2 km/h (1 Bft) 97 %
26.08.2016 08:20 14,9 C 14,8 C 14,9 C 85 % 1015,9 hPa 0,0 l/m 0,0 km/h (0 Bft) N 0 0 min 0,000 mm 30 W/m 12,4 C 14,9 C 0,0 km/h (0 Bft) 98 %
26.08.2016 08:30 15,1 C 14,9 C 15,1 C 86 % 1016,0 hPa 0,0 l/m 0,0 km/h (0 Bft) N 0 0 min 0,000 mm 97 W/m 12,8 C 15,1 C 0,0 km/h (0 Bft) 98 %
26.08.2016 08:40 15,7 C 15,1 C 15,7 C 85 % 1015,9 hPa 0,0 l/m 0,0 km/h (0 Bft) N 0 10 min 0,000 mm 304 W/m 13,2 C 15,7 C 0,0 km/h (0 Bft) 100 %
26.08.2016 08:50 16,9 C 15,7 C 16,9 C 82 % 1015,9 hPa 0,0 l/m 0,0 km/h (0 Bft) N 0 10 min 0,000 mm 338 W/m 13,8 C 16,9 C 0,0 km/h (0 Bft) 99 %
26.08.2016 09:00 18,3 C 16,9 C 18,3 C 77 % 1015,9 hPa 0,0 l/m 0,0 km/h (0 Bft) N 0 10 min 0,076 mm 369 W/m 14,2 C 18,3 C 0,0 km/h (0 Bft) 100 %
26.08.2016 09:10 19,3 C 18,3 C 19,3 C 74 % 1015,9 hPa 0,0 l/m 0,0 km/h (0 Bft) N 0 10 min 0,000 mm 394 W/m 14,5 C 19,3 C 0,0 km/h (0 Bft) 100 %
26.08.2016 09:20 20,2 C 19,4 C 20,2 C 73 % 1016,0 hPa 0,0 l/m 0,0 km/h (0 Bft) N 0 10 min 0,000 mm 424 W/m 15,2 C 20,2 C 0,0 km/h (0 Bft) 100 %
26.08.2016 09:30 21,0 C 20,2 C 21,0 C 68 % 1016,0 hPa 0,0 l/m 0,0 km/h (0 Bft) N 0 10 min 0,000 mm 452 W/m 14,9 C 21,0 C 0,0 km/h (0 Bft) 100 %
26.08.2016 09:40 22,2 C 21,1 C 22,2 C 67 % 1016,1 hPa 0,0 l/m 0,0 km/h (0 Bft) N 360 10 min 0,000 mm 478 W/m 15,8 C 22,2 C 1,6 km/h (1 Bft) 100 %
26.08.2016 09:50 23,2 C 22,2 C 23,2 C 64 % 1016,0 hPa 0,0 l/m 0,0 km/h (0 Bft) N-NO 22 10 min 0,000 mm 503 W/m 16,0 C 23,2 C 1,6 km/h (1 Bft) 100 %
26.08.2016 10:00 23,9 C 23,2 C 23,9 C 63 % 1016,0 hPa 0,0 l/m 0,0 km/h (0 Bft) SO 135 10 min 0,279 mm 529 W/m 16,4 C 23,9 C 1,6 km/h (1 Bft) 100 %
26.08.2016 10:10 24,3 C 23,9 C 24,3 C 63 % 1016,0 hPa 0,0 l/m 0,0 km/h (0 Bft) S 180 10 min 0,000 mm 552 W/m 16,8 C 24,3 C 6,4 km/h (2 Bft) 100 %
26.08.2016 10:20 25,3 C 24,3 C 25,3 C 63 % 1016,0 hPa 0,0 l/m 0,0 km/h (0 Bft) S-SW 202 10 min 0,000 mm 577 W/m 17,7 C 25,3 C 4,8 km/h (1 Bft) 99 %
26.08.2016 10:30 26,0 C 25,3 C 26,0 C 61 % 1016,2 hPa 0,0 l/m 0,0 km/h (0 Bft) S-SW 202 10 min 0,000 mm 596 W/m 17,9 C 26,0 C 6,4 km/h (2 Bft) 100 %
26.08.2016 10:40 26,1 C 26,0 C 26,2 C 59 % 1016,2 hPa 0,0 l/m 1,6 km/h (1 Bft) S-SO 157 10 min 0,000 mm 617 W/m 17,4 C 26,1 C 11,3 km/h (2 Bft) 100 %
26.08.2016 10:50 26,2 C 26,1 C 26,2 C 62 % 1016,2 hPa 0,0 l/m 1,6 km/h (1 Bft) S 180 10 min 0,000 mm 636 W/m 18,3 C 26,2 C 11,3 km/h (2 Bft) 100 %
26.08.2016 11:00 26,7 C 26,2 C 26,7 C 61 % 1016,2 hPa 0,0 l/m 1,6 km/h (1 Bft) S 180 10 min 0,381 mm 656 W/m 18,5 C 26,7 C 9,7 km/h (2 Bft) 100 %
26.08.2016 11:10 26,8 C 26,7 C 26,8 C 60 % 1016,2 hPa 0,0 l/m 0,0 km/h (0 Bft) S-SO 157 10 min 0,000 mm 675 W/m 18,4 C 26,8 C 1,6 km/h (1 Bft) 100 %
26.08.2016 11:20 27,2 C 26,8 C 27,2 C 58 % 1016,2 hPa 0,0 l/m 0,0 km/h (0 Bft) S-SO 157 10 min 0,000 mm 691 W/m 18,2 C 27,2 C 8,0 km/h (2 Bft) 99 %
26.08.2016 11:30 27,3 C 27,2 C 27,3 C 60 % 1016,2 hPa 0,0 l/m 1,6 km/h (1 Bft) S 180 10 min 0,000 mm 705 W/m 18,8 C 27,3 C 9,7 km/h (2 Bft) 100 %
26.08.2016 11:40 27,7 C 27,3 C 27,7 C 60 % 1016,2 hPa 0,0 l/m 1,6 km/h (1 Bft) S-SW 202 10 min 0,000 mm 721 W/m 19,2 C 27,7 C 8,0 km/h (2 Bft) 99 %
26.08.2016 11:50 28,3 C 27,8 C 28,3 C 59 % 1016,3 hPa 0,0 l/m 1,6 km/h (1 Bft) S-SW 202 10 min 0,000 mm 733 W/m 19,5 C 28,3 C 11,3 km/h (2 Bft) 99 %
26.08.2016 12:00 28,9 C 28,3 C 28,9 C 58 % 1016,3 hPa 0,0 l/m 1,6 km/h (1 Bft) SW 225 10 min 0,457 mm 747 W/m 19,8 C 28,9 C 8,0 km/h (2 Bft) 100 %
26.08.2016 12:10 29,3 C 28,9 C 29,3 C 57 % 1016,2 hPa 0,0 l/m 3,2 km/h (1 Bft) S-SW 202 10 min 0,000 mm 756 W/m 19,9 C 29,3 C 14,5 km/h (3 Bft) 100 %
26.08.2016 12:20 29,7 C 29,3 C 29,7 C 54 % 1016,2 hPa 0,0 l/m 3,2 km/h (1 Bft) W 270 10 min 0,000 mm 766 W/m 19,4 C 29,7 C 9,7 km/h (2 Bft) 99 %
26.08.2016 12:30 30,0 C 29,7 C 30,0 C 54 % 1016,2 hPa 0,0 l/m 1,6 km/h (1 Bft) SW 225 10 min 0,000 mm 772 W/m 19,7 C 30,0 C 9,7 km/h (2 Bft) 100 %
26.08.2016 12:40 30,0 C 29,9 C 30,1 C 55 % 1016,1 hPa 0,0 l/m 3,2 km/h (1 Bft) S-SW 202 10 min 0,000 mm 777 W/m 19,9 C 30,0 C 9,7 km/h (2 Bft) 99 %
26.08.2016 12:50 29,7 C 29,7 C 30,0 C 56 % 1016,0 hPa 0,0 l/m 1,6 km/h (1 Bft) SW 225 10 min 0,000 mm 782 W/m 20,0 C 29,7 C 11,3 km/h (2 Bft) 97 %
26.08.2016 13:00 29,9 C 29,7 C 29,9 C 56 % 1015,9 hPa 0,0 l/m 4,8 km/h (1 Bft) SW 225 10 min 0,533 mm 789 W/m 20,1 C 29,9 C 11,3 km/h (2 Bft) 98 %
26.08.2016 13:10 30,0 C 29,8 C 30,0 C 53 % 1015,8 hPa 0,0 l/m 1,6 km/h (1 Bft) S 180 10 min 0,000 mm 791 W/m 19,4 C 30,0 C 12,9 km/h (3 Bft) 97 %
26.08.2016 13:20 30,3 C 30,0 C 30,3 C 53 % 1015,8 hPa 0,0 l/m 1,6 km/h (1 Bft) S 180 10 min 0,000 mm 791 W/m 19,6 C 30,3 C 11,3 km/h (2 Bft) 99 %
26.08.2016 13:30 30,6 C 30,3 C 30,6 C 54 % 1015,9 hPa 0,0 l/m 1,6 km/h (1 Bft) S 180 10 min 0,000 mm 791 W/m 20,2 C 30,6 C 8,0 km/h (2 Bft) 87 %
26.08.2016 13:40 31,2 C 30,6 C 31,2 C 51 % 1015,9 hPa 0,0 l/m 1,6 km/h (1 Bft) S-SW 202 10 min 0,000 mm 793 W/m 19,8 C 31,2 C 12,9 km/h (3 Bft) 98 %
26.08.2016 13:50 31,2 C 31,2 C 31,3 C 53 % 1015,9 hPa 0,0 l/m 3,2 km/h (1 Bft) SW 225 10 min 0,000 mm 791 W/m 20,5 C 31,2 C 14,5 km/h (3 Bft) 98 %
26.08.2016 14:00 31,3 C 31,2 C 31,3 C 51 % 1015,8 hPa 0,0 l/m 1,6 km/h (1 Bft) S-SW 202 10 min 0,559 mm 788 W/m 19,9 C 31,3 C 9,7 km/h (2 Bft) 97 %
26.08.2016 14:10 31,4 C 31,3 C 31,4 C 49 % 1015,7 hPa 0,0 l/m 0,0 km/h (0 Bft) SW 225 10 min 0,000 mm 780 W/m 19,4 C 31,4 C 8,0 km/h (2 Bft) 98 %
26.08.2016 14:20 31,5 C 31,4 C 31,6 C 51 % 1015,8 hPa 0,0 l/m 3,2 km/h (1 Bft) S-SO 157 10 min 0,000 mm 777 W/m 20,1 C 31,5 C 9,7 km/h (2 Bft) 97 %
26.08.2016 14:30 31,7 C 31,4 C 31,7 C 50 % 1015,8 hPa 0,0 l/m 4,8 km/h (1 Bft) S-SW 202 10 min 0,000 mm 765 W/m 20,0 C 31,7 C 14,5 km/h (3 Bft) 98 %
26.08.2016 14:40 31,8 C 31,6 C 31,8 C 50 % 1015,7 hPa 0,0 l/m 1,6 km/h (1 Bft) SW 225 10 min 0,000 mm 756 W/m 20,1 C 31,8 C 9,7 km/h (2 Bft) 96 %
26.08.2016 14:50 32,4 C 31,9 C 32,4 C 50 % 1015,6 hPa 0,0 l/m 1,6 km/h (1 Bft) NW 315 10 min 0,000 mm 745 W/m 20,6 C 32,4 C 11,3 km/h (2 Bft) 97 %
26.08.2016 15:00 32,8 C 32,4 C 32,8 C 48 % 1015,5 hPa 0,0 l/m 3,2 km/h (1 Bft) NW 315 10 min 0,533 mm 733 W/m 20,3 C 32,8 C 11,3 km/h (2 Bft) 98 %
26.08.2016 15:10 33,1 C 32,8 C 33,1 C 46 % 1015,5 hPa 0,0 l/m 3,2 km/h (1 Bft) NW 315 10 min 0,000 mm 160 W/m 19,9 C 33,1 C 9,7 km/h (2 Bft) 97 %
26.08.2016 15:20 33,3 C 33,1 C 33,3 C 43 % 1015,5 hPa 0,0 l/m 4,8 km/h (1 Bft) NW 315 10 min 0,000 mm 283 W/m 19,0 C 33,3 C 14,5 km/h (3 Bft) 98 %
26.08.2016 15:30 33,3 C 33,3 C 33,4 C 41 % 1015,4 hPa 0,0 l/m 4,8 km/h (1 Bft) NW 315 0 min 0,000 mm 90 W/m 18,2 C 33,3 C 14,5 km/h (3 Bft) 97 %
26.08.2016 15:40 33,3 C 33,3 C 33,3 C 41 % 1015,4 hPa 0,0 l/m 8,0 km/h (2 Bft) NW 315 0 min 0,000 mm 127 W/m 18,2 C 33,3 C 16,1 km/h (3 Bft) 98 %
26.08.2016 15:50 33,3 C 33,3 C 33,4 C 42 % 1015,4 hPa 0,0 l/m 1,6 km/h (1 Bft) N-NW 337 0 min 0,000 mm 53 W/m 18,6 C 33,3 C 9,7 km/h (2 Bft) 97 %
26.08.2016 16:00 33,2 C 33,2 C 33,3 C 43 % 1015,3 hPa 0,0 l/m 3,2 km/h (1 Bft) NW 315 0 min 0,127 mm 53 W/m 18,9 C 33,2 C 11,3 km/h (2 Bft) 98 %
26.08.2016 16:10 33,3 C 33,2 C 33,3 C 43 % 1015,2 hPa 0,0 l/m 1,6 km/h (1 Bft) NW 315 0 min 0,000 mm 53 W/m 19,0 C 33,3 C 9,7 km/h (2 Bft) 98 %
26.08.2016 16:20 33,2 C 33,2 C 33,3 C 43 % 1015,2 hPa 0,0 l/m 1,6 km/h (1 Bft) NW 315 0 min 0,000 mm 51 W/m 18,9 C 33,2 C 11,3 km/h (2 Bft) 97 %
26.08.2016 16:30 33,2 C 33,2 C 33,3 C 43 % 1015,1 hPa 0,0 l/m 1,4 km/h (1 Bft) W-NW 291 0 min 0,000 mm 51 W/m 18,9 C 33,2 C 8,0 km/h (2 Bft) 99 %
26.08.2016 16:40 33,2 C 33,2 C 33,2 C 42 % 1015,2 hPa 0,0 l/m 0,0 km/h (0 Bft) SW 226 0 min 0,000 mm 47 W/m 18,5 C 33,2 C 1,6 km/h (1 Bft) 99 %
26.08.2016 16:50 33,1 C 33,1 C 33,2 C 43 % 1015,2 hPa 0,0 l/m 4,6 km/h (1 Bft) W-SW 244 0 min 0,000 mm 47 W/m 18,8 C 33,1 C 11,3 km/h (2 Bft) 100 %
26.08.2016 17:00 32,8 C 32,8 C 33,1 C 41 % 1015,2 hPa 0,0 l/m 3,2 km/h (1 Bft) SW 225 0 min 0,029 mm 46 W/m 17,8 C 32,8 C 11,3 km/h (2 Bft) 99 %
26.08.2016 17:10 32,8 C 32,8 C 32,8 C 43 % 1015,2 hPa 0,0 l/m 5,0 km/h (1 Bft) W-SW 248 0 min 0,000 mm 46 W/m 18,5 C 32,8 C 11,3 km/h (2 Bft) 100 %
26.08.2016 17:20 32,7 C 32,7 C 32,8 C 43 % 1015,1 hPa 0,0 l/m 4,3 km/h (1 Bft) S-SW 205 0 min 0,000 mm 46 W/m 18,5 C 32,7 C 11,3 km/h (2 Bft) 100 %
26.08.2016 17:30 32,6 C 32,6 C 32,7 C 43 % 1015,0 hPa 0,0 l/m 4,9 km/h (1 Bft) S-SW 198 0 min 0,000 mm 44 W/m 18,4 C 32,6 C 11,3 km/h (2 Bft) 99 %
26.08.2016 17:40 32,3 C 32,3 C 32,6 C 45 % 1015,1 hPa 0,0 l/m 3,7 km/h (1 Bft) S-SW 203 0 min 0,000 mm 44 W/m 18,8 C 32,3 C 9,7 km/h (2 Bft) 100 %
26.08.2016 17:50 32,3 C 32,2 C 32,3 C 44 % 1015,0 hPa 0,0 l/m 0,4 km/h (0 Bft) SW 224 0 min 0,000 mm 42 W/m 18,5 C 32,3 C 4,8 km/h (1 Bft) 100 %
26.08.2016 18:00 32,3 C 32,2 C 32,3 C 44 % 1015,0 hPa 0,0 l/m 4,0 km/h (1 Bft) W-NW 291 0 min 0,077 mm 42 W/m 18,5 C 32,3 C 9,7 km/h (2 Bft) 100 %
26.08.2016 18:10 32,3 C 32,3 C 32,3 C 45 % 1015,0 hPa 0,0 l/m 3,5 km/h (1 Bft) W 279 0 min 0,000 mm 40 W/m 18,8 C 32,3 C 8,0 km/h (2 Bft) 100 %
26.08.2016 18:20 32,1 C 32,1 C 32,3 C 46 % 1015,0 hPa 0,0 l/m 3,7 km/h (1 Bft) W 263 0 min 0,000 mm 39 W/m 19,0 C 32,1 C 9,7 km/h (2 Bft) 100 %
26.08.2016 18:30 31,9 C 31,9 C 32,2 C 47 % 1014,9 hPa 0,0 l/m 3,7 km/h (1 Bft) W 259 0 min 0,000 mm 37 W/m 19,2 C 31,9 C 8,0 km/h (2 Bft) 100 %
26.08.2016 18:40 31,7 C 31,7 C 31,9 C 46 % 1014,9 hPa 0,0 l/m 2,8 km/h (1 Bft) SW 229 0 min 0,000 mm 35 W/m 18,6 C 31,7 C 9,7 km/h (2 Bft) 100 %
26.08.2016 18:50 31,5 C 31,5 C 31,7 C 48 % 1014,9 hPa 0,0 l/m 0,8 km/h (0 Bft) SW 231 0 min 0,000 mm 33 W/m 19,1 C 31,5 C 4,8 km/h (1 Bft) 100 %
26.08.2016 19:00 31,3 C 31,3 C 31,5 C 47 % 1014,9 hPa 0,0 l/m 1,6 km/h (1 Bft) W 267 0 min 0,000 mm 30 W/m 18,6 C 31,3 C 6,4 km/h (2 Bft) 100 %
26.08.2016 19:10 31,1 C 31,1 C 31,3 C 48 % 1015,0 hPa 0,0 l/m 1,6 km/h (1 Bft) W 265 0 min 0,076 mm 28 W/m 18,8 C 31,1 C 4,8 km/h (1 Bft) 100 %
26.08.2016 19:20 30,9 C 30,9 C 31,1 C 50 % 1015,0 hPa 0,0 l/m 0,0 km/h (0 Bft) W 265 0 min 0,000 mm 26 W/m 19,2 C 30,9 C 1,6 km/h (1 Bft) 99 %
26.08.2016 19:30 30,5 C 30,5 C 30,9 C 52 % 1015,0 hPa 0,0 l/m 0,0 km/h (0 Bft) W 265 0 min 0,000 mm 23 W/m 19,5 C 30,5 C 0,0 km/h (0 Bft) 100 %
26.08.2016 19:40 30,0 C 30,0 C 30,5 C 54 % 1015,0 hPa 0,0 l/m 0,0 km/h (0 Bft) W 265 0 min 0,000 mm 19 W/m 19,7 C 30,0 C 0,0 km/h (0 Bft) 100 %
26.08.2016 19:50 29,4 C 29,4 C 30,0 C 55 % 1015,0 hPa 0,0 l/m 0,0 km/h (0 Bft) W 265 0 min 0,000 mm 16 W/m 19,4 C 29,4 C 0,0 km/h (0 Bft) 100 %
26.08.2016 20:00 28,8 C 28,8 C 29,4 C 56 % 1015,1 hPa 0,0 l/m 0,0 km/h (0 Bft) W 265 0 min 0,025 mm 11 W/m 19,1 C 28,8 C 0,0 km/h (0 Bft) 100 %
26.08.2016 20:10 28,3 C 28,3 C 28,8 C 57 % 1015,2 hPa 0,0 l/m 0,0 km/h (0 Bft) W 265 0 min 0,000 mm 5 W/m 18,9 C 28,3 C 0,0 km/h (0 Bft) 100 %
26.08.2016 20:20 27,7 C 27,7 C 28,3 C 57 % 1015,3 hPa 0,0 l/m 0,0 km/h (0 Bft) W 265 0 min 0,000 mm 0 W/m 18,4 C 27,7 C 0,0 km/h (0 Bft) 100 %
26.08.2016 20:30 27,2 C 27,2 C 27,7 C 59 % 1015,4 hPa 0,0 l/m 0,0 km/h (0 Bft) W 265 0 min 0,000 mm 0 W/m 18,5 C 27,2 C 0,0 km/h (0 Bft) 100 %
26.08.2016 20:40 26,8 C 26,8 C 27,2 C 61 % 1015,4 hPa 0,0 l/m 0,0 km/h (0 Bft) W 265 0 min 0,000 mm 0 W/m 18,6 C 26,8 C 0,0 km/h (0 Bft) 100 %
26.08.2016 20:50 26,3 C 26,3 C 26,8 C 63 % 1015,4 hPa 0,0 l/m 0,0 km/h (0 Bft) W 265 0 min 0,000 mm 0 W/m 18,7 C 26,3 C 0,0 km/h (0 Bft) 100 %
26.08.2016 21:00 26,0 C 26,0 C 26,3 C 64 % 1015,6 hPa 0,0 l/m 0,0 km/h (0 Bft) W 265 0 min 0,000 mm 0 W/m 18,6 C 26,0 C 0,0 km/h (0 Bft) 100 %
26.08.2016 21:10 25,4 C 25,4 C 26,0 C 67 % 1015,5 hPa 0,0 l/m 3,2 km/h (1 Bft) W 270 0 min 0,000 mm 0 W/m 18,8 C 25,4 C 6,4 km/h (2 Bft) 97 %
26.08.2016 21:20 24,8 C 24,8 C 25,4 C 68 % 1015,6 hPa 0,0 l/m 0,0 km/h (0 Bft) NW 315 0 min 0,000 mm 0 W/m 18,5 C 24,8 C 3,2 km/h (1 Bft) 98 %
26.08.2016 21:30 24,4 C 24,4 C 24,8 C 70 % 1015,7 hPa 0,0 l/m 0,0 km/h (0 Bft) NW 315 0 min 0,000 mm 0 W/m 18,6 C 24,4 C 1,6 km/h (1 Bft) 97 %
26.08.2016 21:40 24,0 C 24,0 C 24,4 C 72 % 1015,8 hPa 0,0 l/m 0,0 km/h (0 Bft) N 0 0 min 0,000 mm 0 W/m 18,6 C 24,0 C 0,0 km/h (0 Bft) 98 %
26.08.2016 21:50 23,7 C 23,7 C 24,0 C 73 % 1015,9 hPa 0,0 l/m 1,6 km/h (1 Bft) NW 315 0 min 0,000 mm 0 W/m 18,6 C 23,7 C 4,8 km/h (1 Bft) 97 %
26.08.2016 22:00 23,6 C 23,5 C 23,7 C 75 % 1015,9 hPa 0,0 l/m 1,6 km/h (1 Bft) NW 315 0 min 0,025 mm 0 W/m 18,9 C 23,6 C 4,8 km/h (1 Bft) 97 %
26.08.2016 22:10 23,4 C 23,4 C 23,6 C 74 % 1016,1 hPa 0,0 l/m 0,0 km/h (0 Bft) NW 315 0 min 0,000 mm 0 W/m 18,5 C 23,4 C 3,2 km/h (1 Bft) 98 %
26.08.2016 22:20 23,2 C 23,2 C 23,4 C 76 % 1016,1 hPa 0,0 l/m 0,0 km/h (0 Bft) N 0 0 min 0,000 mm 0 W/m 18,7 C 23,2 C 0,0 km/h (0 Bft) 98 %
26.08.2016 22:30 22,8 C 22,8 C 23,2 C 76 % 1016,0 hPa 0,0 l/m 0,0 km/h (0 Bft) N 0 0 min 0,000 mm 0 W/m 18,3 C 22,8 C 0,0 km/h (0 Bft) 97 %
26.08.2016 22:40 22,4 C 22,4 C 22,8 C 77 % 1016,1 hPa 0,0 l/m 0,0 km/h (0 Bft) N 0 0 min 0,000 mm 0 W/m 18,2 C 22,4 C 0,0 km/h (0 Bft) 98 %
26.08.2016 22:50 22,1 C 22,1 C 22,4 C 79 % 1016,2 hPa 0,0 l/m 1,6 km/h (1 Bft) NW 315 0 min 0,000 mm 0 W/m 18,3 C 22,1 C 4,8 km/h (1 Bft) 98 %
26.08.2016 23:00 21,9 C 21,9 C 22,1 C 80 % 1016,2 hPa 0,0 l/m 1,6 km/h (1 Bft) NW 315 0 min 0,025 mm 0 W/m 18,3 C 21,9 C 4,8 km/h (1 Bft) 97 %
26.08.2016 23:10 21,7 C 21,7 C 21,9 C 80 % 1016,2 hPa 0,0 l/m 0,0 km/h (0 Bft) NW 315 0 min 0,000 mm 0 W/m 18,1 C 21,7 C 1,6 km/h (1 Bft) 97 %
26.08.2016 23:20 21,4 C 21,4 C 21,7 C 81 % 1016,1 hPa 0,0 l/m 0,0 km/h (0 Bft) N 0 0 min 0,000 mm 0 W/m 18,0 C 21,4 C 0,0 km/h (0 Bft) 98 %
26.08.2016 23:30 21,3 C 21,3 C 21,4 C 82 % 1016,1 hPa 0,0 l/m 0,0 km/h (0 Bft) N 0 0 min 0,000 mm 0 W/m 18,1 C 21,3 C 0,0 km/h (0 Bft) 98 %
26.08.2016 23:40 21,1 C 21,1 C 21,3 C 82 % 1016,1 hPa 0,0 l/m 0,0 km/h (0 Bft) NW 315 0 min 0,000 mm 0 W/m 17,9 C 21,1 C 1,6 km/h (1 Bft) 98 %
26.08.2016 23:50 20,9 C 20,9 C 21,1 C 83 % 1016,0 hPa 0,0 l/m 1,6 km/h (1 Bft) NW 315 0 min 0,000 mm 0 W/m 17,9 C 20,9 C 6,4 km/h (2 Bft) 97 %
_ Min-Zeit 06:10 06:10 06:10 15:30 02:30 - 00:00 - - - - - 06:20 07:50 00:30 13:30
Minimum _ 14,6 C 14,6 C 14,7 C 41 % 1014,6 hPa - 0,0 km/h (0 Bft) - - - - - 11,8 C 14,6 C 0,0 km/h (0 Bft) 87 %
_ Max-Zeit 15:30 15:30 15:30 08:30 11:50 00:00 15:40 - - 08:40 14:00 13:40 14:50 15:20 15:40 08:40
Maximum _ 33,4 C 33,3 C 33,4 C 86 % 1016,3 hPa 0,0 l/m 8,0 km/h
NW (2 Bft)
- - 10 min 0,559 mm 793 W/m 20,6 C 33,3 C 16,1 km/h
NW (3 Bft)
100 %
Durchschnitt _ 23,8 C 23,7 C 24,0 C 65 % 1015,5 hPa #0,0 l/m 1,2 km/h (1 Bft) NW - #6:50 h #3,428 mm 337 W/m 16,3 C 23,8 C 5,2 km/h (1 Bft) 98 %
PRIVATE WETTERSTATION BILLIGHEIM-ALLFELD - www.neckar-odenwald-wetter.de - Holger Sonntag